createdAt,value
2022-12-22T00:02:01.085Z,98421.84
2022-12-22T00:04:47.023Z,98415.28
2022-12-22T00:07:33.419Z,98419.19
2022-12-22T00:10:31.931Z,98413.06
2022-12-22T00:13:19.441Z,98399.75
2022-12-22T00:16:06.651Z,98396.97
2022-12-22T00:18:52.680Z,98396.13
2022-12-22T00:21:37.902Z,98398.38
2022-12-22T00:24:23.738Z,98394.66
2022-12-22T00:27:11.084Z,98391.34
2022-12-22T00:30:00.504Z,98392.44
2022-12-22T00:32:51.294Z,98379.03
2022-12-22T00:35:39.930Z,98377.66
2022-12-22T00:38:32.795Z,98370.13
2022-12-22T00:41:21.055Z,98372.25
2022-12-22T00:44:06.843Z,98380.25
2022-12-22T00:46:58.721Z,98361.13
2022-12-22T00:49:47.220Z,98364.91
2022-12-22T00:52:34.995Z,98360.13
2022-12-22T00:55:23.772Z,98352.31
2022-12-22T00:58:09.688Z,98345.22
2022-12-22T01:00:59.067Z,98346.19
2022-12-22T01:03:46.414Z,98337.41
2022-12-22T01:06:32.670Z,98342.94
2022-12-22T01:09:18.773Z,98339.50
2022-12-22T01:12:04.440Z,98345.28
2022-12-22T01:14:50.243Z,98346.47
2022-12-22T01:17:35.898Z,98333.13
2022-12-22T01:20:25.356Z,98332.72
2022-12-22T01:23:10.769Z,98325.44
2022-12-22T01:25:56.351Z,98316.75
2022-12-22T01:28:42.547Z,98321.09
2022-12-22T01:31:40.394Z,98318.72
2022-12-22T01:34:27.988Z,98315.22
2022-12-22T01:37:15.040Z,98308.72
2022-12-22T01:40:00.876Z,98301.66
2022-12-22T01:42:49.433Z,98298.72
2022-12-22T01:45:41.277Z,98300.88
2022-12-22T01:48:30.573Z,98297.81
2022-12-22T01:51:17.750Z,98280.63
2022-12-22T01:54:07.250Z,98287.47
2022-12-22T01:56:53.337Z,98283.13
2022-12-22T01:59:39.280Z,98271.38
2022-12-22T02:02:26.000Z,98269.66
2022-12-22T02:05:16.410Z,98270.88
2022-12-22T02:08:21.226Z,98271.97
2022-12-22T02:11:39.449Z,98260.41
2022-12-22T02:14:37.685Z,98262.34
2022-12-22T02:17:32.395Z,98263.44
2022-12-22T02:20:36.796Z,98261.50
2022-12-22T02:23:33.764Z,98256.97
2022-12-22T02:26:34.426Z,98255.47
2022-12-22T02:29:21.785Z,98252.97
2022-12-22T02:32:08.126Z,98248.94
2022-12-22T02:34:53.977Z,98249.25
2022-12-22T02:37:48.932Z,98237.00
2022-12-22T02:40:43.128Z,98236.16
2022-12-22T02:43:41.289Z,98226.09
2022-12-22T02:46:34.321Z,98224.47
2022-12-22T02:49:29.751Z,98219.81
2022-12-22T02:52:20.300Z,98216.94
2022-12-22T02:55:05.536Z,98213.22
2022-12-22T02:57:50.731Z,98198.03
2022-12-22T03:00:40.030Z,98203.84
2022-12-22T03:03:26.155Z,98197.84
2022-12-22T03:06:11.550Z,98202.03
2022-12-22T03:08:57.768Z,98187.97
2022-12-22T03:11:43.244Z,98189.16
2022-12-22T03:14:28.597Z,98183.97
2022-12-22T03:17:15.649Z,98183.88
2022-12-22T03:20:00.975Z,98176.88
2022-12-22T03:22:47.751Z,98171.72
2022-12-22T03:25:33.725Z,98161.28
2022-12-22T03:28:04.660Z,98145.44
2022-12-22T03:30:33.108Z,98156.00
2022-12-22T03:33:03.578Z,98150.97
2022-12-22T03:35:31.653Z,98140.16
2022-12-22T03:38:03.834Z,98137.03
2022-12-22T03:40:32.547Z,98131.75
2022-12-22T03:43:18.005Z,98128.00
2022-12-22T03:46:03.286Z,98116.09
2022-12-22T03:48:33.027Z,98117.66
2022-12-22T03:51:01.308Z,98114.78
2022-12-22T03:53:29.488Z,98108.28
2022-12-22T03:55:59.247Z,98101.66
2022-12-22T03:58:30.913Z,98094.47
2022-12-22T04:01:07.847Z,98093.38
2022-12-22T04:03:37.689Z,98088.31
2022-12-22T04:06:06.910Z,98084.72
2022-12-22T04:08:35.668Z,98086.16
2022-12-22T04:11:20.889Z,98076.31
2022-12-22T04:13:49.811Z,98079.44
2022-12-22T04:16:18.083Z,98070.78
2022-12-22T04:18:49.697Z,98071.13
2022-12-22T04:21:18.460Z,98064.38
2022-12-22T04:23:47.332Z,98066.81
2022-12-22T04:26:17.464Z,98062.72
2022-12-22T04:28:45.833Z,98064.88
2022-12-22T04:31:14.412Z,98060.44
2022-12-22T04:33:42.721Z,98058.31
2022-12-22T04:36:13.125Z,98057.56
2022-12-22T04:38:41.645Z,98052.78
2022-12-22T04:41:10.312Z,98046.16
2022-12-22T04:43:39.219Z,98049.56
2022-12-22T04:46:07.850Z,98047.38
2022-12-22T04:48:37.620Z,98039.19
2022-12-22T04:51:07.289Z,98036.09
2022-12-22T04:53:38.391Z,98047.13
2022-12-22T04:56:10.409Z,98048.22
2022-12-22T04:58:39.047Z,98036.34
2022-12-22T05:01:11.766Z,98038.47
2022-12-22T05:03:40.636Z,98022.41
2022-12-22T05:06:09.316Z,98035.75
2022-12-22T05:08:40.005Z,98035.50
2022-12-22T05:11:08.841Z,98025.63
2022-12-22T05:13:39.075Z,98030.22
2022-12-22T05:16:09.891Z,98023.00
2022-12-22T05:18:39.363Z,98022.88
2022-12-22T05:21:09.764Z,98015.19
2022-12-22T05:23:40.199Z,98016.88
2022-12-22T05:26:10.394Z,98007.72
2022-12-22T05:28:40.941Z,97998.00
2022-12-22T05:31:11.283Z,97996.22
2022-12-22T05:33:40.087Z,97996.06
2022-12-22T05:36:09.967Z,98000.41
2022-12-22T05:38:41.620Z,97993.88
2022-12-22T05:41:11.304Z,97986.22
2022-12-22T05:43:40.037Z,97984.66
2022-12-22T05:46:11.510Z,97983.81
2022-12-22T05:48:40.798Z,97985.75
2022-12-22T05:51:11.227Z,97986.78
2022-12-22T05:53:47.752Z,97983.19
2022-12-22T05:56:16.205Z,97984.16
2022-12-22T05:58:45.673Z,97985.72
2022-12-22T06:01:14.277Z,97980.91
2022-12-22T06:03:43.419Z,97970.56
2022-12-22T06:06:11.804Z,97964.09
2022-12-22T06:08:41.415Z,97985.34
2022-12-22T06:11:09.669Z,97989.53
2022-12-22T06:13:40.011Z,97991.34
2022-12-22T06:16:09.253Z,97984.03
2022-12-22T06:18:37.963Z,97970.72
2022-12-22T06:21:07.370Z,97964.56
2022-12-22T06:23:37.335Z,97963.34
2022-12-22T06:26:09.645Z,97959.75
2022-12-22T06:28:39.166Z,97951.59
2022-12-22T06:31:08.991Z,97952.53
2022-12-22T06:33:37.514Z,97951.22
2022-12-22T06:36:07.018Z,97943.88
2022-12-22T06:38:36.073Z,97948.59
2022-12-22T06:41:11.971Z,97944.59
2022-12-22T06:43:39.326Z,97939.81
2022-12-22T06:46:07.818Z,97938.09
2022-12-22T06:48:36.370Z,97948.06
2022-12-22T06:51:06.919Z,97939.28
2022-12-22T06:53:35.328Z,97933.56
2022-12-22T06:56:03.891Z,97939.44
2022-12-22T06:58:34.375Z,97948.69
2022-12-22T07:01:02.826Z,97945.91
2022-12-22T07:03:34.583Z,97941.72
2022-12-22T07:06:04.622Z,97946.75
2022-12-22T07:08:33.192Z,97943.41
2022-12-22T07:11:03.724Z,97941.06
2022-12-22T07:13:37.216Z,97942.56
2022-12-22T07:16:09.069Z,97943.63
2022-12-22T07:18:46.365Z,97943.72
2022-12-22T07:21:16.961Z,97941.47
2022-12-22T07:23:45.726Z,97942.28
2022-12-22T07:26:15.541Z,97937.84
2022-12-22T07:28:46.653Z,97933.25
2022-12-22T07:31:17.631Z,97943.47
2022-12-22T07:33:48.736Z,97934.72
2022-12-22T07:36:19.864Z,97931.53
2022-12-22T07:38:52.027Z,97931.31
2022-12-22T07:41:38.821Z,97942.78
2022-12-22T07:44:10.582Z,97942.53
2022-12-22T07:46:42.952Z,97942.66
2022-12-22T07:49:30.145Z,97936.13
2022-12-22T07:51:59.644Z,97944.06
2022-12-22T07:54:29.229Z,97930.00
2022-12-22T07:56:58.400Z,97928.06
2022-12-22T07:59:28.540Z,97917.81
2022-12-22T08:02:00.442Z,97920.47
2022-12-22T08:04:30.666Z,97918.66
2022-12-22T08:07:01.728Z,97918.66
2022-12-22T08:09:31.109Z,97916.72
2022-12-22T08:12:00.394Z,97913.97
2022-12-22T08:14:30.590Z,97916.41
2022-12-22T08:17:01.008Z,97918.19
2022-12-22T08:19:29.772Z,97916.13
2022-12-22T08:21:58.576Z,97923.94
2022-12-22T08:24:27.558Z,97916.47
2022-12-22T08:27:00.310Z,97920.78
2022-12-22T08:29:35.132Z,97927.13
2022-12-22T08:32:07.990Z,97924.78
2022-12-22T08:34:36.519Z,97926.44
2022-12-22T08:37:09.252Z,97921.56
2022-12-22T08:39:42.419Z,97931.41
2022-12-22T08:42:14.829Z,97935.16
2022-12-22T08:44:46.222Z,97942.25
2022-12-22T08:47:17.082Z,97941.59
2022-12-22T08:49:47.148Z,97947.97
2022-12-22T08:52:18.891Z,97944.78
2022-12-22T08:54:48.659Z,97951.09
2022-12-22T08:57:17.720Z,97956.47
2022-12-22T08:59:49.861Z,97963.19
2022-12-22T09:02:18.212Z,97947.19
2022-12-22T09:04:47.098Z,97952.56
2022-12-22T09:07:16.737Z,97961.13
2022-12-22T09:09:49.677Z,97965.56
2022-12-22T09:12:19.406Z,97979.25
2022-12-22T09:14:52.329Z,97995.78
2022-12-22T09:17:20.861Z,97999.13
2022-12-22T09:19:49.018Z,97991.19
2022-12-22T09:22:21.735Z,97992.16
2022-12-22T09:24:54.380Z,97999.38
2022-12-22T09:27:25.689Z,98014.13
2022-12-22T09:29:59.705Z,98011.88
2022-12-22T09:32:35.076Z,98015.63
2022-12-22T09:35:04.105Z,98013.06
2022-12-22T09:37:36.015Z,98021.50
2022-12-22T09:40:12.302Z,98023.31
2022-12-22T09:42:44.587Z,98022.06
2022-12-22T09:45:20.281Z,98036.81
2022-12-22T09:47:56.159Z,98033.75
2022-12-22T09:50:26.638Z,98037.38
2022-12-22T09:53:00.139Z,98028.09
2022-12-22T09:55:41.373Z,98015.31
2022-12-22T09:58:25.925Z,98009.03
2022-12-22T10:01:05.222Z,98007.94
2022-12-22T10:03:43.093Z,98001.88
2022-12-22T10:06:18.853Z,98009.50
2022-12-22T10:08:51.736Z,98011.28
2022-12-22T10:11:22.202Z,98009.16
2022-12-22T10:13:51.438Z,98011.69
2022-12-22T10:16:25.068Z,98017.94
2022-12-22T10:19:02.783Z,98012.84
2022-12-22T10:21:34.718Z,98011.88
2022-12-22T10:24:23.684Z,98022.47
2022-12-22T10:27:00.367Z,98024.63
2022-12-22T10:29:31.271Z,98026.31
2022-12-22T10:32:04.352Z,98037.59
2022-12-22T10:34:33.897Z,98046.25
2022-12-22T10:37:07.871Z,98051.19
2022-12-22T10:39:38.654Z,98056.91
2022-12-22T10:42:13.533Z,98059.63
2022-12-22T10:44:48.785Z,98053.31
2022-12-22T10:47:24.728Z,98067.38
2022-12-22T10:52:32.010Z,98071.56
2022-12-22T10:55:18.709Z,98074.13
2022-12-22T10:57:47.759Z,98069.50
2022-12-22T11:00:28.688Z,98076.13
2022-12-22T11:03:01.191Z,98072.59
2022-12-22T11:05:31.081Z,98069.81
2022-12-22T11:08:12.904Z,98075.38
2022-12-22T11:10:50.251Z,98074.41
2022-12-22T11:13:48.958Z,98073.78
2022-12-22T11:16:27.116Z,98080.53
2022-12-22T11:19:11.757Z,98083.28
2022-12-22T11:21:50.669Z,98081.47
2022-12-22T11:24:36.738Z,98094.09
2022-12-22T11:27:18.949Z,98097.31
2022-12-22T11:30:03.970Z,98099.97
2022-12-22T11:32:48.183Z,98110.53
2022-12-22T11:35:27.343Z,98110.47
2022-12-22T11:38:05.366Z,98117.66
2022-12-22T11:40:36.337Z,98125.25
2022-12-22T11:43:21.556Z,98126.88
2022-12-22T11:46:01.703Z,98129.75
2022-12-22T11:48:53.837Z,98123.44
2022-12-22T11:51:36.475Z,98137.06
2022-12-22T11:54:36.471Z,98143.00
2022-12-22T11:57:17.033Z,98147.03
2022-12-22T11:59:59.672Z,98149.97
2022-12-22T12:03:16.390Z,98155.31
2022-12-22T12:05:58.904Z,98162.03
2022-12-22T12:08:41.098Z,98160.91
2022-12-22T12:11:19.128Z,98166.88
2022-12-22T12:13:58.889Z,98172.88
2022-12-22T12:16:36.309Z,98174.31
2022-12-22T12:19:40.367Z,98182.34
2022-12-22T12:22:15.764Z,98187.72
2022-12-22T12:25:01.901Z,98175.03
2022-12-22T12:28:01.025Z,98171.19
2022-12-22T12:30:39.063Z,98183.94
2022-12-22T12:33:15.991Z,98191.16
2022-12-22T12:35:56.023Z,98199.59
2022-12-22T12:39:06.463Z,98214.78
2022-12-22T12:41:31.454Z,98211.88
2022-12-22T12:44:00.813Z,98213.47
2022-12-22T12:47:00.005Z,98217.47
2022-12-22T12:49:58.776Z,98227.69
2022-12-22T12:53:06.462Z,98223.84
2022-12-22T12:55:37.561Z,98230.81
2022-12-22T12:58:11.981Z,98219.47
2022-12-22T13:00:52.577Z,98226.53
2022-12-22T13:06:53.577Z,98225.63
2022-12-22T13:12:41.017Z,98233.16
2022-12-22T13:15:33.512Z,98240.94
2022-12-22T13:18:03.501Z,98251.84
2022-12-22T13:20:35.128Z,98243.81
2022-12-22T13:23:11.865Z,98247.03
2022-12-22T13:25:46.993Z,98251.66
2022-12-22T13:28:22.358Z,98268.53
2022-12-22T13:30:59.661Z,98267.94
2022-12-22T13:33:33.605Z,98268.44
2022-12-22T13:36:03.000Z,98276.25
2022-12-22T13:38:33.052Z,98279.63
2022-12-22T13:41:06.657Z,98289.22
2022-12-22T13:43:35.158Z,98282.50
2022-12-22T13:46:10.967Z,98276.00
2022-12-22T13:48:45.201Z,98273.09
2022-12-22T13:51:21.078Z,98274.78
2022-12-22T13:54:08.637Z,98280.34
2022-12-22T13:56:41.319Z,98274.19
2022-12-22T13:59:23.556Z,98279.81
2022-12-22T14:01:59.591Z,98294.16
2022-12-22T14:04:32.142Z,98291.72
2022-12-22T14:07:12.930Z,98281.19
2022-12-22T14:09:45.761Z,98275.22
2022-12-22T14:12:16.647Z,98273.50
2022-12-22T14:14:47.745Z,98285.19
2022-12-22T14:17:23.389Z,98287.06
2022-12-22T14:19:53.722Z,98292.66
2022-12-22T14:22:25.920Z,98300.72
2022-12-22T14:25:01.586Z,98290.59
2022-12-22T14:27:37.978Z,98289.22
2022-12-22T14:30:17.344Z,98278.84
2022-12-22T14:32:55.877Z,98283.72
2022-12-22T14:35:32.075Z,98283.50
2022-12-22T14:38:27.903Z,98279.31
2022-12-22T14:40:58.576Z,98278.22
2022-12-22T14:43:35.549Z,98285.56
2022-12-22T14:46:26.444Z,98288.22
2022-12-22T14:49:00.323Z,98291.38
2022-12-22T14:51:30.969Z,98293.66
2022-12-22T14:54:03.596Z,98295.94
2022-12-22T14:56:33.557Z,98303.53
2022-12-22T14:59:14.230Z,98295.81
2022-12-22T15:01:59.750Z,98308.00
2022-12-22T15:04:36.186Z,98298.81
2022-12-22T15:08:02.641Z,98305.81
2022-12-22T15:10:15.781Z,98307.09
2022-12-22T15:12:45.727Z,98317.81
2022-12-22T15:15:18.033Z,98321.03
2022-12-22T15:17:49.125Z,98331.97
2022-12-22T15:20:25.552Z,98330.31
2022-12-22T15:22:54.281Z,98339.53
2022-12-22T15:25:24.653Z,98341.56
2022-12-22T15:27:53.613Z,98350.47
2022-12-22T15:30:29.842Z,98351.91
2022-12-22T15:32:58.652Z,98354.94
2022-12-22T15:35:31.975Z,98364.16
2022-12-22T15:38:04.433Z,98361.31
2022-12-22T15:40:33.857Z,98365.66
2022-12-22T15:43:02.356Z,98369.56
2022-12-22T15:45:32.046Z,98365.13
2022-12-22T15:48:04.008Z,98372.63
2022-12-22T15:50:39.240Z,98366.09
2022-12-22T15:53:12.995Z,98362.38
2022-12-22T15:55:46.304Z,98368.69
2022-12-22T15:58:21.276Z,98366.94
2022-12-22T16:00:49.731Z,98361.63
2022-12-22T16:03:18.556Z,98377.97
2022-12-22T16:05:48.654Z,98369.53
2022-12-22T16:08:19.185Z,98371.88
2022-12-22T16:10:48.511Z,98374.81
2022-12-22T16:13:22.248Z,98373.00
2022-12-22T16:15:53.011Z,98363.00
2022-12-22T16:18:21.763Z,98357.53
2022-12-22T16:20:52.998Z,98360.75
2022-12-22T16:23:26.123Z,98368.41
2022-12-22T16:26:02.012Z,98372.34
2022-12-22T16:28:34.582Z,98372.38
2022-12-22T16:31:03.474Z,98378.38
2022-12-22T16:33:31.879Z,98367.72
2022-12-22T16:36:06.388Z,98368.88
2022-12-22T16:38:36.846Z,98368.63
2022-12-22T16:41:06.240Z,98369.53
2022-12-22T16:43:50.662Z,98367.00
2022-12-22T16:46:26.997Z,98371.34
2022-12-22T16:48:58.655Z,98368.44
2022-12-22T16:51:34.133Z,98370.06
2022-12-22T16:54:03.457Z,98369.53
2022-12-22T16:56:37.957Z,98374.31
2022-12-22T16:59:06.667Z,98354.03
2022-12-22T17:01:41.373Z,98364.59
2022-12-22T17:04:12.771Z,98361.78
2022-12-22T17:06:44.167Z,98363.84
2022-12-22T17:09:17.570Z,98365.25
2022-12-22T17:11:48.191Z,98366.72
2022-12-22T17:14:26.051Z,98353.06
2022-12-22T17:16:54.803Z,98360.25
2022-12-22T17:19:23.237Z,98361.19
2022-12-22T17:21:57.589Z,98351.00
2022-12-22T17:24:29.019Z,98354.34
2022-12-22T17:27:00.142Z,98355.72
2022-12-22T17:29:30.401Z,98352.72
2022-12-22T17:32:01.861Z,98361.97
2022-12-22T17:34:30.338Z,98356.13
2022-12-22T17:37:00.362Z,98350.13
2022-12-22T17:39:30.146Z,98351.28
2022-12-22T17:41:59.641Z,98353.44
2022-12-22T17:44:29.408Z,98346.53
2022-12-22T17:47:05.514Z,98341.44
2022-12-22T17:49:35.233Z,98341.06
2022-12-22T17:52:08.599Z,98343.66
2022-12-22T17:54:37.625Z,98331.78
2022-12-22T17:57:08.402Z,98329.25
2022-12-22T17:59:38.176Z,98327.56
2022-12-22T18:02:08.967Z,98332.53
2022-12-22T18:04:48.798Z,98325.59
2022-12-22T18:07:24.233Z,98324.59
2022-12-22T18:09:58.359Z,98320.09
2022-12-22T18:12:27.023Z,98319.91
2022-12-22T18:14:55.858Z,98321.91
2022-12-22T18:17:33.369Z,98321.50
2022-12-22T18:20:04.413Z,98316.56
2022-12-22T18:22:34.605Z,98323.22
2022-12-22T18:25:02.682Z,98320.84
2022-12-22T18:27:40.574Z,98318.00
2022-12-22T18:33:37.863Z,98296.69
2022-12-22T18:36:06.882Z,98298.81
2022-12-22T18:38:42.093Z,98295.31
2022-12-22T18:41:11.839Z,98293.22
2022-12-22T18:43:40.414Z,98292.09
2022-12-22T18:46:12.225Z,98286.38
2022-12-22T18:48:43.833Z,98283.50
2022-12-22T18:51:19.979Z,98284.03
2022-12-22T18:53:50.964Z,98281.53
2022-12-22T18:56:20.846Z,98278.44
2022-12-22T18:58:49.407Z,98262.94
2022-12-22T19:01:21.417Z,98265.66
2022-12-22T19:03:52.685Z,98250.09
2022-12-22T19:06:24.412Z,98256.66
2022-12-22T19:08:57.422Z,98255.28
2022-12-22T19:11:28.852Z,98250.88
2022-12-22T19:13:59.653Z,98263.25
2022-12-22T19:16:28.425Z,98258.81
2022-12-22T19:19:01.803Z,98253.22
2022-12-22T19:21:30.160Z,98250.88
2022-12-22T19:24:00.524Z,98253.94
2022-12-22T19:26:31.957Z,98246.13
2022-12-22T19:29:02.710Z,98247.22
2022-12-22T19:31:33.448Z,98243.19
2022-12-22T19:34:05.936Z,98244.13
2022-12-22T19:36:36.000Z,98240.44
2022-12-22T19:39:07.427Z,98248.34
2022-12-22T19:41:41.555Z,98244.34
2022-12-22T19:44:18.666Z,98244.56
2022-12-22T19:46:50.326Z,98235.34
2022-12-22T19:49:24.354Z,98231.88
2022-12-22T19:51:54.790Z,98229.03
2022-12-22T19:54:26.229Z,98220.25
2022-12-22T19:57:00.103Z,98216.31
2022-12-22T19:59:38.082Z,98213.19
2022-12-22T20:02:26.691Z,98207.69
2022-12-22T20:04:59.447Z,98206.53
2022-12-22T20:07:36.495Z,98204.19
2022-12-22T20:10:11.802Z,98208.84
2022-12-22T20:12:45.441Z,98195.63
2022-12-22T20:15:22.944Z,98197.00
2022-12-22T20:17:53.715Z,98187.50
2022-12-22T20:20:25.171Z,98192.56
2022-12-22T20:22:57.023Z,98185.00
2022-12-22T20:25:28.741Z,98182.00
2022-12-22T20:28:00.430Z,98174.59
2022-12-22T20:30:32.217Z,98178.47
2022-12-22T20:33:01.586Z,98174.38
2022-12-22T20:35:31.360Z,98174.13
2022-12-22T20:38:04.588Z,98176.78
2022-12-22T20:40:38.078Z,98173.06
2022-12-22T20:43:06.785Z,98168.84
2022-12-22T20:45:36.523Z,98173.34
2022-12-22T20:48:11.566Z,98164.03
2022-12-22T20:50:39.894Z,98169.88
2022-12-22T20:53:11.314Z,98163.63
2022-12-22T20:55:43.189Z,98169.91
2022-12-22T20:58:17.536Z,98165.94
2022-12-22T21:00:47.495Z,98160.09
2022-12-22T21:03:17.179Z,98162.47
2022-12-22T21:05:46.503Z,98156.13
2022-12-22T21:08:20.469Z,98166.44
2022-12-22T21:10:54.591Z,98163.69
2022-12-22T21:13:24.867Z,98170.97
2022-12-22T21:15:56.080Z,98164.78
2022-12-22T21:18:26.362Z,98163.69
2022-12-22T21:20:55.581Z,98165.09
2022-12-22T21:23:28.379Z,98155.00
2022-12-22T21:25:59.710Z,98162.94
2022-12-22T21:28:37.236Z,98159.47
2022-12-22T21:31:06.518Z,98157.91
2022-12-22T21:33:37.617Z,98152.25
2022-12-22T21:36:07.061Z,98160.69
2022-12-22T21:38:37.907Z,98158.06
2022-12-22T21:41:09.529Z,98147.22
2022-12-22T21:43:39.381Z,98152.38
2022-12-22T21:46:12.132Z,98146.53
2022-12-22T21:48:40.849Z,98147.94
2022-12-22T21:51:13.706Z,98148.22
2022-12-22T21:53:46.348Z,98153.50
2022-12-22T21:56:21.540Z,98153.72
2022-12-22T21:58:50.703Z,98148.88
2022-12-22T22:01:20.505Z,98147.38
2022-12-22T22:03:51.476Z,98152.66
2022-12-22T22:06:28.160Z,98160.72
2022-12-22T22:08:58.112Z,98159.28
2022-12-22T22:11:32.036Z,98154.00
2022-12-22T22:14:04.973Z,98149.69
2022-12-22T22:16:33.766Z,98146.53
2022-12-22T22:19:02.413Z,98150.78
2022-12-22T22:21:30.880Z,98147.75
2022-12-22T22:24:00.604Z,98146.09
2022-12-22T22:26:34.337Z,98148.16
2022-12-22T22:29:04.661Z,98135.81
2022-12-22T22:31:33.279Z,98135.88
2022-12-22T22:34:02.869Z,98129.16
2022-12-22T22:36:33.959Z,98124.59
2022-12-22T22:39:03.051Z,98116.78
2022-12-22T22:41:39.234Z,98120.38
2022-12-22T22:44:12.598Z,98119.44
2022-12-22T22:46:42.888Z,98115.38
2022-12-22T22:49:11.591Z,98105.38
2022-12-22T22:51:39.881Z,98103.31
2022-12-22T22:54:08.582Z,98103.81
2022-12-22T22:56:39.061Z,98105.38
2022-12-22T22:59:13.335Z,98104.31
2022-12-22T23:01:43.412Z,98101.44
2022-12-22T23:04:13.181Z,98098.53
2022-12-22T23:06:42.975Z,98099.97
2022-12-22T23:09:14.549Z,98104.09
2022-12-22T23:11:48.555Z,98096.88
2022-12-22T23:14:19.121Z,98093.97
2022-12-22T23:16:49.601Z,98102.28
2022-12-22T23:19:23.356Z,98099.69
2022-12-22T23:21:54.249Z,98093.44
2022-12-22T23:24:24.547Z,98095.50
2022-12-22T23:26:55.699Z,98095.31
2022-12-22T23:29:24.619Z,98093.13
2022-12-22T23:31:54.368Z,98089.28
2022-12-22T23:34:24.582Z,98102.63
2022-12-22T23:36:53.478Z,98089.91
2022-12-22T23:39:22.916Z,98082.19
2022-12-22T23:41:58.943Z,98077.66
2022-12-22T23:44:27.545Z,98077.84
2022-12-22T23:46:56.430Z,98067.16
2022-12-22T23:49:26.298Z,98078.69
2022-12-22T23:51:55.027Z,98073.44
2022-12-22T23:54:23.282Z,98077.03
2022-12-22T23:56:51.679Z,98067.53
2022-12-22T23:59:22.395Z,98065.63
